Time;durP1;ratioP1;P1;durP2;ratioP2;P2;SDS_P1;SDS_P2;PMS_P1;PMS_P2;Temp;Humidity;BMP_temperature;BMP_pressure;BME280_temperature;BME280_humidity;BME280_pressure;Samples;Min_cycle;Max_cycle;Signal;HPM_P1;HPM_P2
2024/04/02 00:01:05;;;;;;;2.70;1.70;;;;;;;-146.27;77.56;44213.19;5090688;28;20028;-67
2024/04/02 00:03:30;;;;;;;3.97;1.47;;;;;;;-146.27;77.14;44203.22;5078631;28;20021;-68
2024/04/02 00:05:56;;;;;;;3.70;1.73;;;;;;;-146.27;77.26;44191.28;5098169;28;20054;-67
2024/04/02 00:08:21;;;;;;;2.35;1.50;;;;;;;-146.27;77.24;44193.28;5082980;28;20040;-67
2024/04/02 00:10:46;;;;;;;2.42;1.67;;;;;;;-146.27;77.90;44235.06;5093332;28;20063;-67
2024/04/02 00:13:12;;;;;;;2.95;1.70;;;;;;;-146.27;77.21;44189.31;5078348;28;20020;-67
2024/04/02 00:15:38;;;;;;;3.30;1.67;;;;;;;-146.27;77.48;44199.25;5085026;28;20084;-67
2024/04/02 00:18:04;;;;;;;3.15;1.63;;;;;;;-146.27;77.92;44250.97;5090124;28;20039;-67
2024/04/02 00:20:29;;;;;;;4.75;1.80;;;;;;;-146.27;78.87;44262.91;5082762;28;20019;-67
2024/04/02 00:22:55;;;;;;;2.00;1.77;;;;;;;-146.27;78.14;44209.19;5087456;28;20161;-68
2024/04/02 00:25:20;;;;;;;4.10;1.40;;;;;;;-146.27;78.33;44237.06;5088959;28;20062;-67
2024/04/02 00:27:45;;;;;;;1.55;1.23;;;;;;;-146.27;78.33;44203.22;5096684;28;20040;-68
2024/04/02 00:30:26;;;;;;;4.07;1.60;;;;;;;-146.27;78.40;44209.19;5090396;28;20036;-67
2024/04/02 00:32:51;;;;;;;2.45;1.40;;;;;;;-146.27;78.43;44205.22;5092433;28;20032;-66
2024/04/02 00:35:17;;;;;;;2.30;1.50;;;;;;;-146.27;78.43;44191.28;5091210;28;20065;-68
2024/04/02 00:37:42;;;;;;;2.05;1.23;;;;;;;-146.27;78.19;44187.31;5090053;28;20055;-66
2024/04/02 00:40:08;;;;;;;3.00;1.35;;;;;;;-146.27;78.52;44239.03;5090722;28;20035;-67
2024/04/02 00:42:34;;;;;;;3.65;1.48;;;;;;;-146.27;78.69;44231.09;5093774;28;20120;-67
2024/04/02 00:44:59;;;;;;;1.88;1.42;;;;;;;-146.27;78.64;44207.22;5091898;28;20687;-67
2024/04/02 00:47:25;;;;;;;2.05;1.40;;;;;;;-146.27;78.24;44159.47;5085873;28;20020;-67
2024/04/02 00:49:52;;;;;;;7.80;1.65;;;;;;;-146.27;78.22;44215.16;5092781;28;20555;-67
2024/04/02 00:52:17;;;;;;;3.92;1.55;;;;;;;-146.27;78.66;44233.06;5099371;28;20055;-67
2024/04/02 00:54:44;;;;;;;2.08;1.40;;;;;;;-146.27;78.33;44201.25;5090008;28;20023;-67
2024/04/02 00:57:09;;;;;;;2.13;1.30;;;;;;;-146.27;78.67;44223.13;5083928;28;20034;-68
2024/04/02 00:59:35;;;;;;;3.60;1.88;;;;;;;-146.27;78.64;44199.25;5090909;28;20019;-67
2024/04/02 01:02:02;;;;;;;2.65;1.50;;;;;;;-146.27;78.67;44215.16;5092199;28;20590;-69
2024/04/02 01:04:28;;;;;;;2.78;1.40;;;;;;;-146.27;78.73;44211.19;5089065;28;20024;-74
2024/04/02 01:06:53;;;;;;;2.78;1.23;;;;;;;-146.27;78.53;44177.38;5098743;28;20556;-73
2024/04/02 01:09:18;;;;;;;4.95;2.15;;;;;;;-146.27;78.34;44187.31;5078033;28;20038;-74
2024/04/02 01:11:45;;;;;;;2.85;1.42;;;;;;;-146.27;78.29;44191.28;5088923;28;20020;-73
2024/04/02 01:14:10;;;;;;;1.35;1.15;;;;;;;-146.27;77.92;44197.25;5087901;28;20456;-73
2024/04/02 01:16:43;;;;;;;2.55;1.42;;;;;;;-146.27;78.72;44266.91;5089715;28;20035;-74
2024/04/02 01:19:09;;;;;;;1.63;1.50;;;;;;;-146.27;78.93;44231.09;5075223;28;20055;-74
2024/04/02 01:21:34;;;;;;;7.65;2.05;;;;;;;-146.27;78.63;44245.00;5090660;28;20024;-73
2024/04/02 01:24:00;;;;;;;4.05;1.30;;;;;;;-146.27;79.21;44247.00;5076957;28;20023;-73
2024/04/02 01:26:25;;;;;;;4.03;1.77;;;;;;;-146.27;79.21;44215.16;5076961;28;20028;-74
2024/04/02 01:29:03;;;;;;;5.00;1.40;;;;;;;-146.27;78.39;44191.28;5094998;28;20065;-74
2024/04/02 01:31:30;;;;;;;5.70;1.80;;;;;;;-146.27;78.44;44211.19;5087595;28;20488;-73
2024/04/02 01:33:56;;;;;;;5.68;1.55;;;;;;;-146.27;78.88;44243.03;5073129;28;20028;-73
2024/04/02 01:36:22;;;;;;;4.57;1.52;;;;;;;-146.27;79.02;44227.09;5089788;28;20044;-74
2024/04/02 01:38:47;;;;;;;6.75;1.55;;;;;;;-146.27;79.65;44304.72;5093111;28;20384;-73
2024/04/02 01:41:12;;;;;;;1.75;1.38;;;;;;;-146.27;79.72;44276.84;5078347;28;20024;-73
2024/04/02 01:43:38;;;;;;;3.42;1.58;;;;;;;-146.27;78.69;44203.22;5088335;28;20035;-74
2024/04/02 01:46:04;;;;;;;7.97;2.35;;;;;;;-146.27;78.68;44233.06;5075410;28;20028;-74
2024/04/02 01:48:29;;;;;;;1.88;1.50;;;;;;;-146.27;78.98;44237.06;5095398;28;20481;-73
2024/04/02 01:50:54;;;;;;;4.63;1.33;;;;;;;-146.27;79.61;44249.00;5090023;28;20029;-74
2024/04/02 01:53:20;;;;;;;2.97;1.30;;;;;;;-146.27;79.07;44187.31;5087166;28;20119;-74
2024/04/02 01:55:45;;;;;;;2.55;1.40;;;;;;;-146.27;78.85;44233.06;5090159;28;20069;-74
2024/04/02 01:58:10;;;;;;;1.98;1.55;;;;;;;-146.27;78.79;44211.19;5091570;28;20024;-74
2024/04/02 02:00:36;;;;;;;3.38;1.63;;;;;;;-146.27;78.84;44239.03;5094471;28;20433;-74
2024/04/02 02:03:02;;;;;;;3.05;1.58;;;;;;;-146.27;78.35;44193.28;5089430;28;20031;-74
2024/04/02 02:05:27;;;;;;;1.88;1.20;;;;;;;-146.27;78.95;44229.09;5089895;28;20103;-75
2024/04/02 02:07:53;;;;;;;4.32;1.63;;;;;;;-146.27;78.83;44235.06;5084842;28;20112;-75
2024/04/02 02:10:18;;;;;;;4.28;1.48;;;;;;;-146.27;80.11;44217.16;5092908;28;20073;-74
2024/04/02 02:12:44;;;;;;;4.82;1.65;;;;;;;-146.27;80.26;44213.19;5090689;28;20439;-74
2024/04/02 02:15:09;;;;;;;2.85;1.58;;;;;;;-146.27;79.54;44151.50;5089295;28;20598;-74
2024/04/02 02:17:34;;;;;;;3.00;1.38;;;;;;;-146.27;79.74;44159.47;5087179;28;20031;-75
2024/04/02 02:20:00;;;;;;;2.33;1.40;;;;;;;-146.27;80.48;44173.38;5092603;28;20099;-73
2024/04/02 02:22:25;;;;;;;6.25;1.50;;;;;;;-146.27;79.66;44163.44;5086101;28;20039;-74
2024/04/02 02:24:51;;;;;;;5.88;1.42;;;;;;;-146.27;80.29;44151.50;5089349;28;20028;-74
2024/04/02 02:27:16;;;;;;;5.60;1.67;;;;;;;-146.27;79.54;44131.59;5093171;28;20524;-74
2024/04/02 02:29:42;;;;;;;2.90;1.52;;;;;;;-146.27;79.49;44171.41;5102549;28;20053;-75
2024/04/02 02:32:07;;;;;;;2.05;1.58;;;;;;;-146.27;80.20;44153.50;5088483;28;20039;-74
2024/04/02 02:34:32;;;;;;;2.65;1.63;;;;;;;-146.27;79.98;44107.72;5087286;28;20078;-74
2024/04/02 02:36:58;;;;;;;1.40;1.30;;;;;;;-146.27;80.43;44093.81;5085938;28;20496;-75
2024/04/02 02:39:23;;;;;;;2.90;1.63;;;;;;;-146.27;80.93;44157.47;5088126;28;20032;-75
2024/04/02 02:41:49;;;;;;;3.90;1.70;;;;;;;-146.27;80.04;44099.78;5091287;28;20509;-74
2024/04/02 02:44:14;;;;;;;3.75;1.70;;;;;;;-146.27;79.96;44115.69;5092803;28;20028;-74
2024/04/02 02:46:39;;;;;;;3.05;1.77;;;;;;;-146.27;80.20;44119.66;5090158;28;20109;-74
2024/04/02 02:49:05;;;;;;;4.78;1.65;;;;;;;-146.27;79.81;44121.66;5081907;28;20028;-74
2024/04/02 02:51:30;;;;;;;2.95;1.80;;;;;;;-146.27;79.99;44115.69;5100609;28;20474;-74
2024/04/02 02:53:56;;;;;;;4.35;1.50;;;;;;;-146.27;79.51;44121.66;5090973;28;20050;-74
2024/04/02 02:56:22;;;;;;;3.53;1.55;;;;;;;-146.27;79.96;44121.66;5100353;28;20088;-73
2024/04/02 02:58:50;;;;;;;4.45;1.80;;;;;;;-146.27;79.64;44075.91;5096322;28;20082;-75
2024/04/02 03:01:16;;;;;;;4.47;1.70;;;;;;;-146.27;80.58;44149.50;5094282;28;20032;-75
2024/04/02 03:03:41;;;;;;;4.80;1.92;;;;;;;-146.27;80.54;44061.97;5091527;28;20043;-75
2024/04/02 03:06:07;;;;;;;5.00;1.75;;;;;;;-146.27;80.30;44075.91;5093580;28;20111;-74
2024/04/02 03:08:32;;;;;;;5.40;1.92;;;;;;;-146.27;80.04;44087.84;5091500;28;20107;-74
2024/04/02 03:11:03;;;;;;;7.45;2.03;;;;;;;-146.27;80.34;44105.75;5092236;28;20396;-73
2024/04/02 03:13:29;;;;;;;2.53;1.63;;;;;;;-146.27;80.53;44038.09;5090995;28;20032;-75
2024/04/02 03:15:55;;;;;;;3.20;1.60;;;;;;;-146.27;80.50;44083.84;5080595;28;20050;-75
2024/04/02 03:18:20;;;;;;;4.38;1.70;;;;;;;-146.27;79.99;44063.97;5091798;28;20024;-75
2024/04/02 03:20:46;;;;;;;3.10;1.73;;;;;;;-146.27;80.92;44133.59;5091626;28;20016;-74
2024/04/02 03:23:12;;;;;;;2.78;1.70;;;;;;;-146.27;81.06;44054.00;5091151;28;20091;-75
2024/04/02 03:25:38;;;;;;;3.78;1.90;;;;;;;-146.27;81.28;44103.75;5074703;28;20024;-73
2024/04/02 03:28:04;;;;;;;3.38;1.95;;;;;;;-146.27;80.76;44075.91;5091057;28;20047;-73
2024/04/02 03:30:29;;;;;;;7.70;1.70;;;;;;;-146.27;80.49;44063.97;5083326;28;20036;-74
2024/04/02 03:32:55;;;;;;;3.45;2.08;;;;;;;-146.27;81.19;44069.94;5090342;28;20394;-74
2024/04/02 03:35:20;;;;;;;4.90;1.70;;;;;;;-146.27;81.23;44071.91;5085833;28;20024;-74
2024/04/02 03:37:46;;;;;;;5.50;1.98;;;;;;;-146.27;82.19;44052.03;5090482;28;20039;-74
2024/04/02 03:40:12;;;;;;;3.75;2.05;;;;;;;-146.27;82.17;44034.13;5081221;28;20082;-73
2024/04/02 03:42:37;;;;;;;3.63;1.63;;;;;;;-146.27;81.82;44079.88;5090674;28;20157;-74
2024/04/02 03:45:04;;;;;;;7.15;2.10;;;;;;;-146.27;81.41;43976.41;5087740;28;20047;-75
2024/04/02 03:47:29;;;;;;;7.45;2.42;;;;;;;-146.27;82.43;44028.16;5072155;28;20042;-75
2024/04/02 03:49:54;;;;;;;2.85;1.88;;;;;;;-146.27;82.55;44024.16;5083998;28;20421;-76
2024/04/02 03:52:20;;;;;;;8.90;2.40;;;;;;;-146.27;83.31;44056.00;5092331;28;20586;-74
2024/04/02 03:54:45;;;;;;;4.20;2.10;;;;;;;-146.27;83.45;43988.34;5091240;28;20511;-74
2024/04/02 03:57:10;;;;;;;9.07;2.05;;;;;;;-146.27;83.37;43922.72;5091709;28;20081;-74
2024/04/02 03:59:36;;;;;;;3.80;2.00;;;;;;;-146.27;82.41;43924.69;5104712;28;20016;-76
2024/04/02 04:02:04;;;;;;;3.00;2.13;;;;;;;-146.27;82.79;43894.84;5096917;28;20030;-75
2024/04/02 04:04:29;;;;;;;5.20;1.70;;;;;;;-146.27;83.24;43890.88;5092548;28;20103;-75
2024/04/02 04:06:55;;;;;;;5.22;2.00;;;;;;;-146.27;83.45;43874.97;5096119;28;20115;-75
2024/04/02 04:09:21;;;;;;;5.18;2.00;;;;;;;-146.27;82.63;43869.00;5087864;28;20113;-74
2024/04/02 04:11:47;;;;;;;4.03;1.67;;;;;;;-146.27;82.82;43872.97;5093298;28;20472;-74
2024/04/02 04:14:13;;;;;;;5.28;1.83;;;;;;;-146.27;82.86;43853.06;5089433;28;20024;-74
2024/04/02 04:16:38;;;;;;;5.20;1.90;;;;;;;-146.27;81.74;43817.25;5090129;28;20093;-73
2024/04/02 04:19:04;;;;;;;3.10;1.90;;;;;;;-146.27;81.98;43801.34;5089370;28;20031;-74
2024/04/02 04:21:30;;;;;;;8.45;2.30;;;;;;;-146.27;81.09;43773.50;5106225;28;20571;-74
2024/04/02 04:23:56;;;;;;;9.57;1.90;;;;;;;-146.27;82.27;43821.25;5087817;28;20027;-72
2024/04/02 04:26:21;;;;;;;2.85;1.70;;;;;;;-146.27;81.83;43781.47;5085406;28;20169;-74
2024/04/02 04:28:46;;;;;;;4.80;1.90;;;;;;;-146.27;82.33;43835.16;5090625;28;20028;-74
2024/04/02 04:31:12;;;;;;;3.85;2.03;;;;;;;-146.27;81.82;43789.41;5095194;28;20477;-75
2024/04/02 04:33:37;;;;;;;6.18;1.70;;;;;;;-146.27;81.35;43765.53;5086137;28;20099;-72
2024/04/02 04:36:03;;;;;;;7.43;1.77;;;;;;;-146.27;82.18;43805.31;5087127;28;20030;-74
2024/04/02 04:38:29;;;;;;;6.40;2.15;;;;;;;-146.27;82.74;43853.06;5087617;28;20082;-74
2024/04/02 04:40:55;;;;;;;7.50;2.10;;;;;;;-146.27;83.66;43841.13;5081101;28;20032;-75
2024/04/02 04:43:20;;;;;;;3.58;1.80;;;;;;;-146.27;82.09;43763.56;5082956;28;20124;-75
2024/04/02 04:45:56;;;;;;;6.40;2.20;;;;;;;-146.27;82.78;43761.56;5088915;28;20024;-75
2024/04/02 04:48:23;;;;;;;6.68;1.70;;;;;;;-146.27;82.49;43759.56;5106871;28;20113;-74
2024/04/02 04:50:56;;;;;;;5.03;1.90;;;;;;;-146.27;81.91;43747.63;5089091;28;20380;-74
2024/04/02 04:53:21;;;;;;;6.82;3.10;;;;;;;-146.27;82.55;43817.25;5082916;28;20123;-74
2024/04/02 04:55:46;;;;;;;4.68;1.83;;;;;;;-146.27;82.31;43753.59;5090302;28;20532;-75
2024/04/02 04:58:12;;;;;;;6.60;1.55;;;;;;;-146.27;83.69;43809.31;5090862;28;20039;-74
2024/04/02 05:00:37;;;;;;;5.68;1.98;;;;;;;-146.27;83.55;43741.66;5091518;28;20019;-73
2024/04/02 05:03:03;;;;;;;5.20;1.65;;;;;;;-146.27;82.93;43699.88;5084316;28;20424;-73
2024/04/02 05:05:28;;;;;;;5.65;2.25;;;;;;;-146.27;82.68;43739.69;5087551;28;20032;-74
2024/04/02 05:08:21;;;;;;;3.80;1.60;;;;;;;-146.27;82.42;43743.66;5089493;28;20115;-73
2024/04/02 05:10:47;;;;;;;4.78;2.00;;;;;;;-146.27;82.65;43747.63;5089912;28;20519;-74
2024/04/02 05:13:14;;;;;;;7.30;1.73;;;;;;;-146.27;82.59;43725.75;5094536;28;20077;-72
2024/04/02 05:15:39;;;;;;;7.90;1.80;;;;;;;-146.27;83.27;43723.75;5087978;28;20123;-74
2024/04/02 05:18:06;;;;;;;5.15;1.90;;;;;;;-146.27;83.15;43691.94;5092533;28;20514;-74
2024/04/02 05:20:32;;;;;;;6.40;1.88;;;;;;;-146.27;82.14;43693.91;5093449;28;20408;-73
2024/04/02 05:22:57;;;;;;;4.40;1.83;;;;;;;-146.27;83.45;43753.59;5089143;28;20027;-72
2024/04/02 05:25:23;;;;;;;8.43;1.85;;;;;;;-146.27;83.75;43741.66;5092200;28;20032;-74
2024/04/02 05:27:48;;;;;;;6.28;2.28;;;;;;;-146.27;82.93;43709.84;5087072;28;20072;-74
2024/04/02 05:30:14;;;;;;;2.72;1.48;;;;;;;-146.27;82.60;43682.00;5089819;28;20895;-75
2024/04/02 05:32:40;;;;;;;6.60;2.28;;;;;;;-146.27;83.76;43725.75;5072238;28;20143;-75
2024/04/02 05:35:05;;;;;;;5.05;1.75;;;;;;;-146.27;83.70;43745.66;5086978;28;20028;-74
2024/04/02 05:37:31;;;;;;;3.40;1.63;;;;;;;-146.27;82.59;43693.91;5085814;28;20024;-74
2024/04/02 05:39:56;;;;;;;6.50;1.73;;;;;;;-146.27;83.17;43741.66;5084407;28;20039;-73
2024/04/02 05:42:21;;;;;;;3.90;1.52;;;;;;;-146.27;82.69;43713.81;5092064;28;20476;-73
2024/04/02 05:44:47;;;;;;;4.68;1.88;;;;;;;-146.27;82.64;43719.78;5089936;28;20016;-67
2024/04/02 05:47:12;;;;;;;5.45;2.63;;;;;;;-146.27;81.70;43721.78;5089739;28;20400;-65
2024/04/02 05:49:37;;;;;;;8.60;1.70;;;;;;;-146.27;82.33;43779.47;5088886;28;20027;-65
2024/04/02 05:52:03;;;;;;;6.07;1.52;;;;;;;-146.27;82.56;43815.28;5089353;28;20024;-65
2024/04/02 05:54:28;;;;;;;3.72;1.25;;;;;;;-146.27;82.24;43789.41;5096205;28;20032;-73
2024/04/02 05:56:54;;;;;;;9.32;2.40;;;;;;;-146.27;82.45;43801.34;5091170;28;20027;-72
2024/04/02 05:59:19;;;;;;;6.68;1.40;;;;;;;-146.27;82.87;43851.09;5089664;28;20023;-73
2024/04/02 06:01:45;;;;;;;7.57;1.85;;;;;;;-146.27;83.05;43845.13;5089059;28;20032;-74
2024/04/02 06:04:10;;;;;;;6.03;1.85;;;;;;;-146.27;83.53;43932.66;5089305;28;20024;-72
2024/04/02 06:06:35;;;;;;;2.67;1.20;;;;;;;-146.27;83.17;43918.72;5094461;28;20028;-73
2024/04/02 06:09:01;;;;;;;4.57;1.40;;;;;;;-146.27;83.02;43960.50;5092934;28;20483;-74
2024/04/02 06:11:26;;;;;;;6.45;1.55;;;;;;;-146.27;83.01;44040.09;5091058;28;20036;-73
2024/04/02 06:13:51;;;;;;;8.40;1.90;;;;;;;-146.27;82.59;44032.13;5089512;28;20400;-73
2024/04/02 06:16:17;;;;;;;9.27;1.50;;;;;;;-146.27;81.86;44032.13;5093852;28;20407;-74
2024/04/02 06:18:42;;;;;;;7.38;1.58;;;;;;;-146.27;82.59;44103.75;5091387;28;20016;-74
2024/04/02 06:21:08;;;;;;;4.70;1.50;;;;;;;-146.27;83.44;44095.78;5091515;28;20020;-73
2024/04/02 06:23:33;;;;;;;7.93;1.80;;;;;;;-146.27;83.20;44109.72;5092995;28;20082;-73
2024/04/02 06:25:59;;;;;;;8.63;1.77;;;;;;;-146.27;83.31;44103.75;5100901;28;20042;-73
2024/04/02 06:28:24;;;;;;;4.40;1.60;;;;;;;-146.27;83.72;44115.69;5099896;28;20078;-75
2024/04/02 06:30:49;;;;;;;4.45;1.70;;;;;;;-146.27;83.51;44107.72;5084913;28;20099;-76
2024/04/02 06:33:15;;;;;;;7.45;1.95;;;;;;;-146.27;83.04;44059.97;5092813;28;20119;-74
2024/04/02 06:35:41;;;;;;;6.65;1.77;;;;;;;-146.27;82.42;44115.69;5090055;28;20028;-73
2024/04/02 06:38:08;;;;;;;8.18;1.95;;;;;;;-146.27;83.58;44089.81;5092240;28;20035;-73
2024/04/02 06:40:33;;;;;;;7.80;1.92;;;;;;;-146.27;83.37;44085.84;5093184;28;20028;-71
2024/04/02 06:42:58;;;;;;;6.55;2.05;;;;;;;-146.27;83.63;44123.66;5093087;28;20028;-72
2024/04/02 06:45:26;;;;;;;7.70;1.65;;;;;;;-146.27;83.31;44079.88;5094149;28;20031;-71
2024/04/02 06:47:52;;;;;;;10.10;2.00;;;;;;;-146.27;83.17;44063.97;5092917;28;20020;-74
2024/04/02 06:50:17;;;;;;;5.43;1.92;;;;;;;-146.27;83.42;44149.50;5093081;28;20040;-72
2024/04/02 06:52:42;;;;;;;6.78;2.20;;;;;;;-146.27;82.73;44189.31;5090625;28;20495;-72
2024/04/02 06:55:08;;;;;;;9.88;2.35;;;;;;;-146.27;83.38;44099.78;5092796;28;20437;-73
2024/04/02 06:57:33;;;;;;;9.20;1.90;;;;;;;-146.27;83.49;44153.50;5092907;28;20437;-72
2024/04/02 06:59:59;;;;;;;11.38;2.30;;;;;;;-146.27;82.61;44117.69;5092904;28;20628;-74
2024/04/02 07:02:24;;;;;;;6.30;1.95;;;;;;;-146.27;82.17;44091.81;5076394;28;20459;-73
2024/04/02 07:04:50;;;;;;;6.95;2.00;;;;;;;-146.27;81.64;44083.84;5090058;28;20031;-73
2024/04/02 07:07:16;;;;;;;8.68;2.15;;;;;;;-146.27;81.54;44095.78;5076956;28;20036;-73
2024/04/02 07:09:41;;;;;;;7.60;2.88;;;;;;;-146.27;81.19;44085.84;5089540;28;20373;-74
2024/04/02 07:12:08;;;;;;;10.73;2.33;;;;;;;-146.27;80.85;44091.81;5091588;28;20047;-75
2024/04/02 07:14:33;;;;;;;7.28;1.83;;;;;;;-146.27;80.80;44131.59;5093277;28;20032;-74
2024/04/02 07:16:59;;;;;;;11.65;2.13;;;;;;;-146.27;81.01;44159.47;5092607;28;20365;-75
2024/04/02 07:19:24;;;;;;;5.18;2.05;;;;;;;-146.27;81.19;44207.22;5092940;28;20024;-74
2024/04/02 07:21:50;;;;;;;7.38;2.38;;;;;;;-146.27;81.12;44233.06;5092827;28;20115;-74
2024/04/02 07:24:15;;;;;;;9.57;2.58;;;;;;;-146.27;81.73;44284.81;5092677;28;20106;-75
2024/04/02 07:26:40;;;;;;;8.65;3.38;;;;;;;-146.27;81.98;44280.81;5083824;28;20127;-75
2024/04/02 07:29:06;;;;;;;10.85;2.45;;;;;;;-146.27;81.36;44235.06;5072305;28;20070;-72
2024/04/02 07:31:31;;;;;;;10.07;2.92;;;;;;;-146.27;81.51;44239.03;5072318;28;20408;-75
2024/04/02 07:33:57;;;;;;;12.55;2.83;;;;;;;-146.27;80.75;44183.34;5072410;28;20028;-74
2024/04/02 07:36:22;;;;;;;11.82;3.03;;;;;;;-146.27;80.14;44211.19;5054688;28;20068;-72
2024/04/02 07:38:47;;;;;;;7.63;2.60;;;;;;;-146.27;80.47;44249.00;5072504;28;20017;-73
2024/04/02 07:41:13;;;;;;;9.82;2.47;;;;;;;-146.27;80.68;44235.06;5072344;28;20074;-74
2024/04/02 07:43:38;;;;;;;9.70;2.40;;;;;;;-146.27;80.48;44250.97;5072142;28;20513;-74
2024/04/02 07:46:03;;;;;;;10.65;2.45;;;;;;;-146.27;79.30;44173.38;5071052;28;20484;-74
2024/04/02 07:48:29;;;;;;;12.00;2.30;;;;;;;-146.27;79.72;44199.25;5072489;28;20100;-74
2024/04/02 07:50:56;;;;;;;12.90;3.15;;;;;;;-146.27;79.55;44211.19;5071931;28;20389;-74
2024/04/02 07:53:23;;;;;;;8.07;2.25;;;;;;;-146.27;79.09;44243.03;5071732;28;20032;-74
2024/04/02 07:55:49;;;;;;;6.50;2.05;;;;;;;-146.27;78.04;44249.00;5071598;28;20074;-74
2024/04/02 07:58:14;;;;;;;6.57;2.47;;;;;;;-146.27;79.04;44280.81;5071803;28;20644;-74
2024/04/02 08:00:41;;;;;;;9.35;2.45;;;;;;;-146.27;78.10;44231.09;5071842;28;20459;-74
2024/04/02 08:03:07;;;;;;;7.57;1.70;;;;;;;-146.27;78.60;44310.69;5071644;28;20472;-74
2024/04/02 08:05:32;;;;;;;6.35;1.92;;;;;;;-146.27;78.19;44298.75;5071631;28;20040;-72
2024/04/02 08:07:58;;;;;;;5.18;2.08;;;;;;;-146.27;77.92;44276.84;5053889;28;20448;-73
2024/04/02 08:10:23;;;;;;;10.05;2.45;;;;;;;-146.27;77.79;44262.91;5071541;28;20021;-73
2024/04/02 08:12:48;;;;;;;11.88;2.08;;;;;;;-146.27;76.10;44247.00;5071604;28;20067;-73
2024/04/02 08:15:14;;;;;;;7.10;1.63;;;;;;;-146.27;75.75;44314.66;5071750;28;20020;-67
2024/04/02 08:17:39;;;;;;;11.20;2.30;;;;;;;-146.27;74.91;44330.56;5071562;28;20028;-66
2024/04/02 08:20:05;;;;;;;14.18;2.60;;;;;;;-146.27;75.37;44394.25;5071269;28;20025;-69
2024/04/02 08:22:31;;;;;;;13.93;1.50;;;;;;;-146.27;75.50;44336.53;5071647;28;20027;-66
2024/04/02 08:24:56;;;;;;;4.28;1.60;;;;;;;-146.27;75.20;44426.06;5071339;28;20024;-68
2024/04/02 08:27:22;;;;;;;6.95;1.42;;;;;;;-146.27;73.84;44324.59;5070934;28;20105;-67
2024/04/02 08:29:49;;;;;;;9.80;1.80;;;;;;;-146.27;72.90;44320.63;5071080;28;20028;-68
2024/04/02 08:32:14;;;;;;;7.65;1.70;;;;;;;-146.27;71.86;44473.84;5071076;28;20029;-68
2024/04/02 08:34:40;;;;;;;8.82;1.45;;;;;;;-146.27;72.20;44495.72;5071151;28;20029;-68
2024/04/02 08:37:05;;;;;;;12.77;1.90;;;;;;;-146.27;72.90;44511.63;5070842;28;20024;-68
2024/04/02 08:39:30;;;;;;;9.65;1.33;;;;;;;-146.27;72.41;44430.06;5052976;28;20099;-68
2024/04/02 08:42:02;;;;;;;8.35;1.67;;;;;;;-146.27;72.99;44525.56;5070534;28;20438;-68
2024/04/02 08:44:32;;;;;;;12.40;1.83;;;;;;;-146.27;72.79;44459.91;5070821;28;20397;-68
2024/04/02 08:46:59;;;;;;;7.78;1.80;;;;;;;-146.27;72.55;44440.00;5070878;28;20036;-67
2024/04/02 08:49:25;;;;;;;11.25;2.17;;;;;;;-146.27;72.81;44461.91;5070712;28;20024;-68
2024/04/02 08:51:51;;;;;;;11.07;1.70;;;;;;;-146.27;73.90;44517.59;5070706;28;20162;-69
2024/04/02 08:54:17;;;;;;;10.38;2.60;;;;;;;-146.27;74.03;44539.50;5070806;28;20103;-68
2024/04/02 08:56:42;;;;;;;7.07;1.58;;;;;;;-146.27;74.63;44551.44;5070592;28;20036;-68
2024/04/02 08:59:11;;;;;;;9.20;1.92;;;;;;;-146.27;74.36;44445.97;5070702;28;20028;-68
2024/04/02 09:01:37;;;;;;;7.68;2.08;;;;;;;-146.27;73.61;44487.75;5070338;28;20596;-68
2024/04/02 09:04:03;;;;;;;5.90;1.60;;;;;;;-146.27;74.71;44489.75;5074965;28;20067;-67
2024/04/02 09:06:30;;;;;;;6.32;1.73;;;;;;;-146.27;74.58;44426.06;5090585;28;20058;-67
2024/04/02 09:08:58;;;;;;;11.70;1.95;;;;;;;-146.27;75.64;44521.59;5090409;28;20016;-66
2024/04/02 09:11:24;;;;;;;3.30;1.70;;;;;;;-146.27;75.12;44438.00;5074452;28;20032;-66
2024/04/02 09:13:50;;;;;;;6.43;1.65;;;;;;;-146.27;74.49;44420.09;5069885;28;20032;-66
2024/04/02 09:16:16;;;;;;;11.32;2.08;;;;;;;-146.27;76.55;44396.22;5070469;28;20100;-70
2024/04/02 09:18:42;;;;;;;9.57;2.03;;;;;;;-146.27;79.70;44364.41;5078630;28;20031;-68
2024/04/02 09:21:11;;;;;;;8.27;1.70;;;;;;;-146.27;80.62;44282.81;5090447;28;20024;-67
2024/04/02 09:23:36;;;;;;;12.70;2.10;;;;;;;-146.27;79.96;44247.00;5090678;28;20024;-66
2024/04/02 09:26:02;;;;;;;9.27;1.83;;;;;;;-146.27;80.70;44332.56;5071167;28;20038;-71
2024/04/02 09:28:27;;;;;;;6.30;1.67;;;;;;;-146.27;79.93;44310.69;5070110;28;20063;-72
2024/04/02 09:30:52;;;;;;;7.78;2.20;;;;;;;-146.27;80.10;44304.72;5070128;28;20491;-74
2024/04/02 09:33:19;;;;;;;13.05;2.38;;;;;;;-146.27;78.14;44199.25;5078891;28;20035;-72
2024/04/02 09:35:59;;;;;;;10.52;2.30;;;;;;;-146.27;78.21;44175.38;5090328;28;20040;-75
2024/04/02 09:38:26;;;;;;;11.43;2.60;;;;;;;-146.27;79.44;44207.22;5090396;28;20028;-75
2024/04/02 09:40:51;;;;;;;8.18;2.28;;;;;;;-146.27;79.34;44131.59;5084558;28;20073;-76
2024/04/02 09:43:20;;;;;;;9.63;2.35;;;;;;;-146.27;80.79;44159.47;5071922;28;20382;-75
2024/04/02 09:45:48;;;;;;;14.05;3.17;;;;;;;-146.27;82.45;44131.59;5070237;28;20036;-74
2024/04/02 09:48:14;;;;;;;14.50;2.53;;;;;;;-146.27;84.45;44063.97;5078647;28;20024;-74
2024/04/02 09:50:42;;;;;;;12.43;2.67;;;;;;;-146.27;86.18;44010.25;5089632;28;20055;-76
2024/04/02 09:53:10;;;;;;;10.48;2.75;;;;;;;-146.27;85.20;43884.91;5090163;28;20052;-76
2024/04/02 09:55:36;;;;;;;14.32;2.80;;;;;;;-146.27;86.27;43876.94;5090338;28;20023;-75
2024/04/02 09:58:02;;;;;;;12.80;3.10;;;;;;;-146.27;86.40;43823.22;5082801;28;20143;-74
2024/04/02 10:00:31;;;;;;;9.93;2.72;;;;;;;-146.27;86.40;43825.22;5078259;28;20056;-74
2024/04/02 10:03:00;;;;;;;10.95;3.20;;;;;;;-146.27;85.74;43751.63;5073813;28;20024;-75
2024/04/02 10:05:26;;;;;;;14.20;3.05;;;;;;;-146.27;85.63;43847.09;5051731;28;20399;-73
2024/04/02 10:07:51;;;;;;;10.90;3.00;;;;;;;-146.27;85.16;43769.53;5070015;28;20082;-76
2024/04/02 10:10:17;;;;;;;9.18;3.17;;;;;;;-146.27;84.71;43872.97;5069732;28;20082;-76
2024/04/02 10:12:48;;;;;;;13.65;3.85;;;;;;;-146.27;84.62;43896.84;5071045;28;20063;-75
2024/04/02 10:15:17;;;;;;;5.47;2.30;;;;;;;-146.27;83.98;43904.81;5089920;28;20050;-76
2024/04/02 10:17:43;;;;;;;10.45;2.75;;;;;;;-146.27;83.37;43825.22;5090034;28;20618;-75
2024/04/02 10:20:23;;;;;;;9.55;3.00;;;;;;;-146.27;83.13;43894.84;5084686;28;20077;-76
2024/04/02 10:22:52;;;;;;;10.18;3.40;;;;;;;-146.27;82.80;43821.25;5069701;28;20032;-76
2024/04/02 10:25:17;;;;;;;13.43;3.03;;;;;;;-146.27;81.63;43853.06;5069808;28;20021;-75
2024/04/02 10:27:47;;;;;;;8.57;2.20;;;;;;;-146.27;80.89;43940.63;5072900;28;20040;-75
2024/04/02 10:30:27;;;;;;;10.57;2.22;;;;;;;-146.27;80.89;43886.91;5089829;28;20020;-75
2024/04/02 10:32:56;;;;;;;6.82;2.10;;;;;;;-146.27;80.99;43948.56;5086553;28;20035;-74
2024/04/02 10:35:25;;;;;;;10.65;2.33;;;;;;;-146.27;80.63;43940.63;5076655;28;20043;-74
2024/04/02 10:37:59;;;;;;;8.35;2.38;;;;;;;-146.27;79.91;43888.88;5069678;28;20027;-75
2024/04/02 10:40:25;;;;;;;3.83;1.88;;;;;;;-146.27;80.15;43960.50;5086273;28;20104;-74
2024/04/02 10:42:52;;;;;;;7.05;2.13;;;;;;;-146.27;79.12;43904.81;5077382;28;20028;-74
2024/04/02 10:45:18;;;;;;;5.90;1.80;;;;;;;-146.27;79.99;43934.66;5069714;28;20021;-75
2024/04/02 10:47:48;;;;;;;7.78;2.10;;;;;;;-146.27;80.37;43978.41;5069929;28;20063;-75
2024/04/02 10:50:15;;;;;;;7.93;1.73;;;;;;;-146.27;79.98;43936.63;5069586;28;20105;-75
2024/04/02 10:52:40;;;;;;;8.07;1.45;;;;;;;-146.27;79.50;43958.53;5072361;28;20174;-73
2024/04/02 10:55:06;;;;;;;9.20;1.88;;;;;;;-146.27;79.11;43994.31;5082536;28;20506;-76
2024/04/02 10:57:33;;;;;;;8.07;2.10;;;;;;;-146.27;78.97;43948.56;5093101;28;20031;-75
2024/04/02 11:00:02;;;;;;;6.15;1.80;;;;;;;-146.27;78.98;43908.78;5093831;28;20027;-75
2024/04/02 11:02:28;;;;;;;4.85;1.70;;;;;;;-146.27;77.88;44135.59;5093561;28;20028;-75
2024/04/02 11:04:55;;;;;;;6.18;1.88;;;;;;;-146.27;77.77;44085.84;5093688;28;20027;-75
2024/04/02 11:07:22;;;;;;;4.38;1.83;;;;;;;-146.27;77.16;44123.66;5093073;28;20043;-74
2024/04/02 11:09:48;;;;;;;10.77;2.10;;;;;;;-146.27;76.75;44125.63;5089876;28;20494;-73
2024/04/02 11:12:15;;;;;;;6.55;1.90;;;;;;;-146.27;75.81;43956.53;5093329;28;20032;-72